sensor_id;sensor_type;location;lat;lon;timestamp;P1;durP1;ratioP1;P2;durP2;ratioP2
15082;SDS011;7640;53.116;6.878;2022-11-04T00:01:52;31.10;;;22.00;;
15082;SDS011;7640;53.116;6.878;2022-11-04T00:04:22;29.97;;;21.13;;
15082;SDS011;7640;53.116;6.878;2022-11-04T00:06:52;29.70;;;20.43;;
15082;SDS011;7640;53.116;6.878;2022-11-04T00:09:24;25.90;;;20.47;;
15082;SDS011;7640;53.116;6.878;2022-11-04T00:11:53;25.87;;;20.50;;
15082;SDS011;7640;53.116;6.878;2022-11-04T00:14:40;28.33;;;20.33;;
15082;SDS011;7640;53.116;6.878;2022-11-04T00:17:09;25.53;;;19.13;;
15082;SDS011;7640;53.116;6.878;2022-11-04T00:19:48;22.83;;;18.53;;
15082;SDS011;7640;53.116;6.878;2022-11-04T00:22:36;25.53;;;19.07;;
15082;SDS011;7640;53.116;6.878;2022-11-04T00:25:25;25.03;;;17.80;;
15082;SDS011;7640;53.116;6.878;2022-11-04T00:28:12;21.27;;;17.00;;
15082;SDS011;7640;53.116;6.878;2022-11-04T00:30:59;23.00;;;17.80;;
15082;SDS011;7640;53.116;6.878;2022-11-04T00:33:43;21.97;;;17.40;;
15082;SDS011;7640;53.116;6.878;2022-11-04T00:36:12;23.27;;;16.53;;
15082;SDS011;7640;53.116;6.878;2022-11-04T00:38:40;23.20;;;16.27;;
15082;SDS011;7640;53.116;6.878;2022-11-04T00:41:12;19.17;;;15.47;;
15082;SDS011;7640;53.116;6.878;2022-11-04T00:43:53;20.73;;;15.87;;
15082;SDS011;7640;53.116;6.878;2022-11-04T00:46:23;19.77;;;14.90;;
15082;SDS011;7640;53.116;6.878;2022-11-04T00:48:52;19.07;;;14.83;;
15082;SDS011;7640;53.116;6.878;2022-11-04T00:51:21;18.60;;;14.77;;
15082;SDS011;7640;53.116;6.878;2022-11-04T00:53:50;18.67;;;14.33;;
15082;SDS011;7640;53.116;6.878;2022-11-04T00:56:20;17.40;;;14.13;;
15082;SDS011;7640;53.116;6.878;2022-11-04T00:58:49;18.63;;;13.80;;
15082;SDS011;7640;53.116;6.878;2022-11-04T01:01:17;15.87;;;11.77;;
15082;SDS011;7640;53.116;6.878;2022-11-04T01:03:47;13.37;;;11.97;;
15082;SDS011;7640;53.116;6.878;2022-11-04T01:06:17;14.60;;;11.90;;
15082;SDS011;7640;53.116;6.878;2022-11-04T01:08:47;14.43;;;11.63;;
15082;SDS011;7640;53.116;6.878;2022-11-04T01:11:16;11.37;;;10.07;;
15082;SDS011;7640;53.116;6.878;2022-11-04T01:13:45;10.77;;;8.43;;
15082;SDS011;7640;53.116;6.878;2022-11-04T01:16:17;8.73;;;7.30;;
15082;SDS011;7640;53.116;6.878;2022-11-04T01:18:46;8.13;;;6.03;;
15082;SDS011;7640;53.116;6.878;2022-11-04T01:21:15;7.37;;;6.30;;
15082;SDS011;7640;53.116;6.878;2022-11-04T01:23:43;7.13;;;5.13;;
15082;SDS011;7640;53.116;6.878;2022-11-04T01:26:13;7.13;;;4.40;;
15082;SDS011;7640;53.116;6.878;2022-11-04T01:28:42;5.57;;;4.77;;
15082;SDS011;7640;53.116;6.878;2022-11-04T01:31:13;4.43;;;3.90;;
15082;SDS011;7640;53.116;6.878;2022-11-04T01:33:46;4.90;;;3.40;;
15082;SDS011;7640;53.116;6.878;2022-11-04T01:36:16;4.37;;;3.17;;
15082;SDS011;7640;53.116;6.878;2022-11-04T01:38:45;4.97;;;2.60;;
15082;SDS011;7640;53.116;6.878;2022-11-04T01:41:17;3.50;;;2.50;;
15082;SDS011;7640;53.116;6.878;2022-11-04T01:43:49;3.43;;;2.70;;
15082;SDS011;7640;53.116;6.878;2022-11-04T01:46:29;3.63;;;2.67;;
15082;SDS011;7640;53.116;6.878;2022-11-04T01:49:18;4.13;;;2.37;;
15082;SDS011;7640;53.116;6.878;2022-11-04T01:51:54;2.43;;;2.03;;
15082;SDS011;7640;53.116;6.878;2022-11-04T01:54:27;2.90;;;2.00;;
15082;SDS011;7640;53.116;6.878;2022-11-04T01:56:57;2.17;;;1.90;;
15082;SDS011;7640;53.116;6.878;2022-11-04T01:59:29;4.70;;;3.00;;
15082;SDS011;7640;53.116;6.878;2022-11-04T02:02:03;2.97;;;1.70;;
15082;SDS011;7640;53.116;6.878;2022-11-04T02:04:32;4.10;;;1.50;;
15082;SDS011;7640;53.116;6.878;2022-11-04T02:07:03;1.70;;;1.30;;
15082;SDS011;7640;53.116;6.878;2022-11-04T02:09:35;2.40;;;1.30;;
15082;SDS011;7640;53.116;6.878;2022-11-04T02:12:05;1.73;;;1.30;;
15082;SDS011;7640;53.116;6.878;2022-11-04T02:14:51;2.07;;;1.30;;
15082;SDS011;7640;53.116;6.878;2022-11-04T02:17:31;1.33;;;1.20;;
15082;SDS011;7640;53.116;6.878;2022-11-04T02:20:21;2.60;;;1.00;;
15082;SDS011;7640;53.116;6.878;2022-11-04T02:29:44;1.90;;;0.87;;
15082;SDS011;7640;53.116;6.878;2022-11-04T02:32:44;3.27;;;0.80;;
15082;SDS011;7640;53.116;6.878;2022-11-04T02:35:40;2.50;;;0.97;;
15082;SDS011;7640;53.116;6.878;2022-11-04T02:38:20;2.73;;;0.97;;
15082;SDS011;7640;53.116;6.878;2022-11-04T02:41:02;2.80;;;0.73;;
15082;SDS011;7640;53.116;6.878;2022-11-04T02:43:44;2.63;;;0.90;;
15082;SDS011;7640;53.116;6.878;2022-11-04T02:46:23;1.60;;;1.20;;
15082;SDS011;7640;53.116;6.878;2022-11-04T02:48:58;2.57;;;1.00;;
15082;SDS011;7640;53.116;6.878;2022-11-04T02:51:35;2.33;;;1.03;;
15082;SDS011;7640;53.116;6.878;2022-11-04T02:54:08;2.23;;;1.10;;
15082;SDS011;7640;53.116;6.878;2022-11-04T02:56:42;3.67;;;1.27;;
15082;SDS011;7640;53.116;6.878;2022-11-04T02:59:20;3.20;;;1.20;;
15082;SDS011;7640;53.116;6.878;2022-11-04T03:01:56;1.53;;;1.20;;
15082;SDS011;7640;53.116;6.878;2022-11-04T03:04:29;3.63;;;1.50;;
15082;SDS011;7640;53.116;6.878;2022-11-04T03:07:02;5.37;;;1.47;;
15082;SDS011;7640;53.116;6.878;2022-11-04T03:09:36;2.40;;;1.37;;
15082;SDS011;7640;53.116;6.878;2022-11-04T03:12:11;4.37;;;1.20;;
15082;SDS011;7640;53.116;6.878;2022-11-04T03:14:45;3.70;;;1.17;;
15082;SDS011;7640;53.116;6.878;2022-11-04T03:17:21;4.20;;;1.20;;
15082;SDS011;7640;53.116;6.878;2022-11-04T03:19:58;1.67;;;0.90;;
15082;SDS011;7640;53.116;6.878;2022-11-04T03:22:28;1.03;;;0.80;;
15082;SDS011;7640;53.116;6.878;2022-11-04T03:25:01;2.40;;;0.83;;
15082;SDS011;7640;53.116;6.878;2022-11-04T03:27:31;2.93;;;0.70;;
15082;SDS011;7640;53.116;6.878;2022-11-04T03:30:07;1.63;;;0.90;;
15082;SDS011;7640;53.116;6.878;2022-11-04T03:32:41;2.37;;;0.97;;
15082;SDS011;7640;53.116;6.878;2022-11-04T03:35:15;2.07;;;1.23;;
15082;SDS011;7640;53.116;6.878;2022-11-04T03:37:44;3.47;;;1.17;;
15082;SDS011;7640;53.116;6.878;2022-11-04T03:40:14;1.77;;;0.60;;
15082;SDS011;7640;53.116;6.878;2022-11-04T03:42:45;3.40;;;0.80;;
15082;SDS011;7640;53.116;6.878;2022-11-04T03:45:18;3.03;;;0.63;;
15082;SDS011;7640;53.116;6.878;2022-11-04T03:47:48;1.20;;;0.70;;
15082;SDS011;7640;53.116;6.878;2022-11-04T03:50:19;1.63;;;0.70;;
15082;SDS011;7640;53.116;6.878;2022-11-04T03:52:53;2.27;;;0.70;;
15082;SDS011;7640;53.116;6.878;2022-11-04T03:55:24;0.83;;;0.67;;
15082;SDS011;7640;53.116;6.878;2022-11-04T03:58:02;1.07;;;0.60;;
15082;SDS011;7640;53.116;6.878;2022-11-04T04:00:37;1.00;;;0.60;;
15082;SDS011;7640;53.116;6.878;2022-11-04T04:03:14;1.80;;;0.70;;
15082;SDS011;7640;53.116;6.878;2022-11-04T04:05:50;2.93;;;0.80;;
15082;SDS011;7640;53.116;6.878;2022-11-04T04:08:24;1.90;;;0.63;;
15082;SDS011;7640;53.116;6.878;2022-11-04T04:11:04;1.60;;;0.80;;
15082;SDS011;7640;53.116;6.878;2022-11-04T04:13:43;2.43;;;0.70;;
15082;SDS011;7640;53.116;6.878;2022-11-04T04:16:16;1.03;;;0.80;;
15082;SDS011;7640;53.116;6.878;2022-11-04T04:18:54;0.70;;;0.70;;
15082;SDS011;7640;53.116;6.878;2022-11-04T04:21:26;1.93;;;0.80;;
15082;SDS011;7640;53.116;6.878;2022-11-04T04:23:58;1.23;;;0.80;;
15082;SDS011;7640;53.116;6.878;2022-11-04T04:26:49;2.47;;;0.90;;
15082;SDS011;7640;53.116;6.878;2022-11-04T04:29:36;3.43;;;1.30;;
15082;SDS011;7640;53.116;6.878;2022-11-04T04:32:05;1.53;;;1.00;;
15082;SDS011;7640;53.116;6.878;2022-11-04T04:34:35;2.27;;;0.97;;
15082;SDS011;7640;53.116;6.878;2022-11-04T04:37:04;1.83;;;0.80;;
15082;SDS011;7640;53.116;6.878;2022-11-04T04:39:37;2.10;;;1.20;;
15082;SDS011;7640;53.116;6.878;2022-11-04T04:42:29;2.00;;;1.00;;
15082;SDS011;7640;53.116;6.878;2022-11-04T04:45:21;2.33;;;0.90;;
15082;SDS011;7640;53.116;6.878;2022-11-04T04:47:53;1.53;;;0.83;;
15082;SDS011;7640;53.116;6.878;2022-11-04T04:50:24;2.23;;;0.90;;
15082;SDS011;7640;53.116;6.878;2022-11-04T04:52:57;3.17;;;0.80;;
15082;SDS011;7640;53.116;6.878;2022-11-04T04:55:28;2.77;;;0.90;;
15082;SDS011;7640;53.116;6.878;2022-11-04T04:58:02;0.80;;;0.80;;
15082;SDS011;7640;53.116;6.878;2022-11-04T05:00:30;2.13;;;0.70;;
15082;SDS011;7640;53.116;6.878;2022-11-04T05:02:59;2.00;;;0.80;;
15082;SDS011;7640;53.116;6.878;2022-11-04T05:05:29;1.60;;;0.70;;
15082;SDS011;7640;53.116;6.878;2022-11-04T05:08:02;1.13;;;0.83;;
15082;SDS011;7640;53.116;6.878;2022-11-04T05:10:32;1.53;;;0.90;;
15082;SDS011;7640;53.116;6.878;2022-11-04T05:13:01;3.07;;;0.90;;
15082;SDS011;7640;53.116;6.878;2022-11-04T05:15:47;1.80;;;0.70;;
15082;SDS011;7640;53.116;6.878;2022-11-04T05:18:16;1.97;;;0.80;;
15082;SDS011;7640;53.116;6.878;2022-11-04T05:20:47;6.57;;;1.37;;
15082;SDS011;7640;53.116;6.878;2022-11-04T05:23:16;1.77;;;1.17;;
15082;SDS011;7640;53.116;6.878;2022-11-04T05:25:44;4.00;;;1.10;;
15082;SDS011;7640;53.116;6.878;2022-11-04T05:28:13;4.83;;;1.10;;
15082;SDS011;7640;53.116;6.878;2022-11-04T05:30:41;2.40;;;0.87;;
15082;SDS011;7640;53.116;6.878;2022-11-04T05:33:09;3.13;;;1.03;;
15082;SDS011;7640;53.116;6.878;2022-11-04T05:35:38;2.80;;;0.80;;
15082;SDS011;7640;53.116;6.878;2022-11-04T05:38:07;3.27;;;0.80;;
15082;SDS011;7640;53.116;6.878;2022-11-04T05:40:36;2.47;;;0.70;;
15082;SDS011;7640;53.116;6.878;2022-11-04T05:43:04;1.33;;;0.60;;
15082;SDS011;7640;53.116;6.878;2022-11-04T05:45:33;4.63;;;0.90;;
15082;SDS011;7640;53.116;6.878;2022-11-04T05:48:02;2.23;;;0.80;;
15082;SDS011;7640;53.116;6.878;2022-11-04T05:50:32;3.70;;;0.70;;
15082;SDS011;7640;53.116;6.878;2022-11-04T05:53:00;2.50;;;0.80;;
15082;SDS011;7640;53.116;6.878;2022-11-04T05:55:30;1.97;;;0.70;;
15082;SDS011;7640;53.116;6.878;2022-11-04T05:57:58;1.27;;;0.77;;
15082;SDS011;7640;53.116;6.878;2022-11-04T06:00:26;2.20;;;0.80;;
15082;SDS011;7640;53.116;6.878;2022-11-04T06:02:55;3.33;;;0.90;;
15082;SDS011;7640;53.116;6.878;2022-11-04T06:05:23;2.93;;;0.70;;
15082;SDS011;7640;53.116;6.878;2022-11-04T06:07:53;4.50;;;0.83;;
15082;SDS011;7640;53.116;6.878;2022-11-04T06:10:22;1.27;;;0.80;;
15082;SDS011;7640;53.116;6.878;2022-11-04T06:12:52;1.53;;;0.77;;
15082;SDS011;7640;53.116;6.878;2022-11-04T06:15:21;0.83;;;0.70;;
15082;SDS011;7640;53.116;6.878;2022-11-04T06:17:49;2.03;;;0.60;;
15082;SDS011;7640;53.116;6.878;2022-11-04T06:20:17;2.00;;;0.73;;
15082;SDS011;7640;53.116;6.878;2022-11-04T06:22:45;3.40;;;1.03;;
15082;SDS011;7640;53.116;6.878;2022-11-04T06:25:13;4.90;;;1.13;;
15082;SDS011;7640;53.116;6.878;2022-11-04T06:27:42;2.77;;;0.93;;
15082;SDS011;7640;53.116;6.878;2022-11-04T06:30:11;2.20;;;0.80;;
15082;SDS011;7640;53.116;6.878;2022-11-04T06:32:40;3.50;;;0.93;;
15082;SDS011;7640;53.116;6.878;2022-11-04T06:35:08;2.43;;;0.80;;
15082;SDS011;7640;53.116;6.878;2022-11-04T06:37:36;1.40;;;0.67;;
15082;SDS011;7640;53.116;6.878;2022-11-04T06:40:05;3.23;;;0.90;;
15082;SDS011;7640;53.116;6.878;2022-11-04T06:42:34;2.10;;;0.90;;
15082;SDS011;7640;53.116;6.878;2022-11-04T06:45:03;4.00;;;1.00;;
15082;SDS011;7640;53.116;6.878;2022-11-04T06:47:34;2.53;;;1.03;;
15082;SDS011;7640;53.116;6.878;2022-11-04T06:50:02;2.40;;;1.00;;
15082;SDS011;7640;53.116;6.878;2022-11-04T06:52:31;4.63;;;1.30;;
15082;SDS011;7640;53.116;6.878;2022-11-04T06:55:07;3.03;;;1.33;;
15082;SDS011;7640;53.116;6.878;2022-11-04T06:57:36;2.10;;;1.47;;
15082;SDS011;7640;53.116;6.878;2022-11-04T07:00:05;2.33;;;1.30;;
15082;SDS011;7640;53.116;6.878;2022-11-04T07:02:36;3.23;;;1.30;;
15082;SDS011;7640;53.116;6.878;2022-11-04T07:05:05;2.03;;;1.27;;
15082;SDS011;7640;53.116;6.878;2022-11-04T07:07:34;4.43;;;1.60;;
15082;SDS011;7640;53.116;6.878;2022-11-04T07:10:04;4.20;;;1.60;;
15082;SDS011;7640;53.116;6.878;2022-11-04T07:12:33;4.70;;;1.50;;
15082;SDS011;7640;53.116;6.878;2022-11-04T07:15:01;5.07;;;1.80;;
15082;SDS011;7640;53.116;6.878;2022-11-04T07:17:30;4.53;;;2.10;;
15082;SDS011;7640;53.116;6.878;2022-11-04T07:20:00;3.07;;;1.70;;
15082;SDS011;7640;53.116;6.878;2022-11-04T07:22:28;3.03;;;1.40;;
15082;SDS011;7640;53.116;6.878;2022-11-04T07:24:56;4.90;;;1.90;;
15082;SDS011;7640;53.116;6.878;2022-11-04T07:27:25;3.20;;;1.40;;
15082;SDS011;7640;53.116;6.878;2022-11-04T07:29:53;2.00;;;1.43;;
15082;SDS011;7640;53.116;6.878;2022-11-04T07:32:21;3.70;;;1.53;;
15082;SDS011;7640;53.116;6.878;2022-11-04T07:34:49;1.67;;;1.30;;
15082;SDS011;7640;53.116;6.878;2022-11-04T07:37:19;3.20;;;1.43;;
15082;SDS011;7640;53.116;6.878;2022-11-04T07:39:47;2.47;;;1.27;;
15082;SDS011;7640;53.116;6.878;2022-11-04T07:42:15;4.27;;;1.50;;
15082;SDS011;7640;53.116;6.878;2022-11-04T07:44:44;2.43;;;1.43;;
15082;SDS011;7640;53.116;6.878;2022-11-04T07:47:12;7.63;;;1.73;;
15082;SDS011;7640;53.116;6.878;2022-11-04T07:49:40;2.60;;;1.20;;
15082;SDS011;7640;53.116;6.878;2022-11-04T07:52:09;2.43;;;1.43;;
15082;SDS011;7640;53.116;6.878;2022-11-04T07:54:39;3.13;;;1.40;;
15082;SDS011;7640;53.116;6.878;2022-11-04T07:57:07;2.90;;;1.57;;
15082;SDS011;7640;53.116;6.878;2022-11-04T07:59:35;4.20;;;1.80;;
15082;SDS011;7640;53.116;6.878;2022-11-04T08:02:04;2.60;;;1.43;;
15082;SDS011;7640;53.116;6.878;2022-11-04T08:04:33;3.80;;;1.70;;
15082;SDS011;7640;53.116;6.878;2022-11-04T08:07:01;2.70;;;1.50;;
15082;SDS011;7640;53.116;6.878;2022-11-04T08:09:32;5.50;;;1.60;;
15082;SDS011;7640;53.116;6.878;2022-11-04T08:12:03;4.20;;;1.60;;
15082;SDS011;7640;53.116;6.878;2022-11-04T08:14:32;3.30;;;1.53;;
15082;SDS011;7640;53.116;6.878;2022-11-04T08:17:00;1.67;;;1.30;;
15082;SDS011;7640;53.116;6.878;2022-11-04T08:19:28;3.13;;;1.60;;
15082;SDS011;7640;53.116;6.878;2022-11-04T08:21:57;3.77;;;1.50;;
15082;SDS011;7640;53.116;6.878;2022-11-04T08:24:25;2.77;;;1.73;;
15082;SDS011;7640;53.116;6.878;2022-11-04T08:26:53;3.50;;;2.23;;
15082;SDS011;7640;53.116;6.878;2022-11-04T08:29:23;2.50;;;1.70;;
15082;SDS011;7640;53.116;6.878;2022-11-04T08:31:51;4.60;;;1.80;;
15082;SDS011;7640;53.116;6.878;2022-11-04T08:34:20;4.13;;;2.17;;
15082;SDS011;7640;53.116;6.878;2022-11-04T08:36:48;5.33;;;1.87;;
15082;SDS011;7640;53.116;6.878;2022-11-04T08:39:18;1.60;;;1.47;;
15082;SDS011;7640;53.116;6.878;2022-11-04T08:41:46;4.97;;;2.20;;
15082;SDS011;7640;53.116;6.878;2022-11-04T08:44:18;4.17;;;1.80;;
15082;SDS011;7640;53.116;6.878;2022-11-04T08:46:48;2.67;;;1.50;;
15082;SDS011;7640;53.116;6.878;2022-11-04T08:49:17;3.10;;;1.83;;
15082;SDS011;7640;53.116;6.878;2022-11-04T08:51:46;3.13;;;1.70;;
15082;SDS011;7640;53.116;6.878;2022-11-04T08:54:21;3.47;;;1.50;;
15082;SDS011;7640;53.116;6.878;2022-11-04T08:56:49;5.20;;;2.43;;
15082;SDS011;7640;53.116;6.878;2022-11-04T08:59:18;4.60;;;2.10;;
15082;SDS011;7640;53.116;6.878;2022-11-04T09:01:46;4.63;;;2.20;;
15082;SDS011;7640;53.116;6.878;2022-11-04T09:04:16;2.97;;;2.00;;
15082;SDS011;7640;53.116;6.878;2022-11-04T09:06:45;3.53;;;1.93;;
15082;SDS011;7640;53.116;6.878;2022-11-04T09:09:16;3.60;;;1.70;;
15082;SDS011;7640;53.116;6.878;2022-11-04T09:11:44;2.87;;;1.70;;
15082;SDS011;7640;53.116;6.878;2022-11-04T09:14:13;4.07;;;1.73;;
15082;SDS011;7640;53.116;6.878;2022-11-04T09:16:43;3.67;;;1.40;;
15082;SDS011;7640;53.116;6.878;2022-11-04T09:19:12;1.97;;;1.60;;
15082;SDS011;7640;53.116;6.878;2022-11-04T09:21:41;3.53;;;1.50;;
15082;SDS011;7640;53.116;6.878;2022-11-04T09:24:09;4.27;;;1.73;;
15082;SDS011;7640;53.116;6.878;2022-11-04T09:26:38;2.93;;;1.60;;
15082;SDS011;7640;53.116;6.878;2022-11-04T09:29:06;5.70;;;1.97;;
15082;SDS011;7640;53.116;6.878;2022-11-04T09:31:35;4.13;;;1.90;;
15082;SDS011;7640;53.116;6.878;2022-11-04T09:34:05;2.77;;;1.60;;
15082;SDS011;7640;53.116;6.878;2022-11-04T09:36:35;3.90;;;1.90;;
15082;SDS011;7640;53.116;6.878;2022-11-04T09:39:03;2.67;;;1.50;;
15082;SDS011;7640;53.116;6.878;2022-11-04T09:44:27;2.10;;;1.30;;
15082;SDS011;7640;53.116;6.878;2022-11-04T09:47:28;3.77;;;1.43;;
15082;SDS011;7640;53.116;6.878;2022-11-04T09:49:59;4.97;;;1.80;;
15082;SDS011;7640;53.116;6.878;2022-11-04T09:52:31;3.53;;;1.23;;
15082;SDS011;7640;53.116;6.878;2022-11-04T09:55:06;3.20;;;1.20;;
15082;SDS011;7640;53.116;6.878;2022-11-04T09:57:53;2.73;;;1.60;;
15082;SDS011;7640;53.116;6.878;2022-11-04T10:00:24;3.30;;;1.40;;
15082;SDS011;7640;53.116;6.878;2022-11-04T10:02:59;4.13;;;1.63;;
15082;SDS011;7640;53.116;6.878;2022-11-04T10:05:46;5.80;;;1.30;;
15082;SDS011;7640;53.116;6.878;2022-11-04T10:08:30;2.33;;;1.20;;
15082;SDS011;7640;53.116;6.878;2022-11-04T10:11:16;1.97;;;1.10;;
15082;SDS011;7640;53.116;6.878;2022-11-04T10:13:55;1.73;;;1.10;;
15082;SDS011;7640;53.116;6.878;2022-11-04T10:16:43;3.17;;;1.20;;
15082;SDS011;7640;53.116;6.878;2022-11-04T10:19:26;4.07;;;1.30;;
15082;SDS011;7640;53.116;6.878;2022-11-04T10:22:08;3.43;;;1.17;;
15082;SDS011;7640;53.116;6.878;2022-11-04T10:24:47;3.20;;;1.13;;
15082;SDS011;7640;53.116;6.878;2022-11-04T10:27:24;4.10;;;1.23;;
15082;SDS011;7640;53.116;6.878;2022-11-04T10:29:57;4.30;;;1.30;;
15082;SDS011;7640;53.116;6.878;2022-11-04T10:32:29;4.30;;;1.30;;
15082;SDS011;7640;53.116;6.878;2022-11-04T10:35:03;3.17;;;1.23;;
15082;SDS011;7640;53.116;6.878;2022-11-04T10:37:41;3.53;;;1.07;;
15082;SDS011;7640;53.116;6.878;2022-11-04T10:40:15;3.63;;;1.10;;
15082;SDS011;7640;53.116;6.878;2022-11-04T10:42:50;4.30;;;1.30;;
15082;SDS011;7640;53.116;6.878;2022-11-04T10:45:20;2.63;;;1.33;;
15082;SDS011;7640;53.116;6.878;2022-11-04T10:47:56;2.13;;;1.60;;
15082;SDS011;7640;53.116;6.878;2022-11-04T10:50:34;2.70;;;1.80;;
15082;SDS011;7640;53.116;6.878;2022-11-04T10:53:12;5.20;;;1.90;;
15082;SDS011;7640;53.116;6.878;2022-11-04T10:55:48;3.97;;;2.20;;
15082;SDS011;7640;53.116;6.878;2022-11-04T10:58:24;3.40;;;1.90;;
15082;SDS011;7640;53.116;6.878;2022-11-04T11:00:57;5.40;;;1.90;;
15082;SDS011;7640;53.116;6.878;2022-11-04T11:03:27;5.07;;;2.07;;
15082;SDS011;7640;53.116;6.878;2022-11-04T11:06:12;6.50;;;2.10;;
15082;SDS011;7640;53.116;6.878;2022-11-04T11:08:47;4.83;;;1.67;;
15082;SDS011;7640;53.116;6.878;2022-11-04T11:11:17;4.33;;;3.30;;
15082;SDS011;7640;53.116;6.878;2022-11-04T11:14:13;6.80;;;3.80;;
15082;SDS011;7640;53.116;6.878;2022-11-04T11:16:44;5.83;;;4.10;;
15082;SDS011;7640;53.116;6.878;2022-11-04T11:19:15;4.63;;;3.30;;
15082;SDS011;7640;53.116;6.878;2022-11-04T11:21:46;4.13;;;3.30;;
15082;SDS011;7640;53.116;6.878;2022-11-04T11:24:20;6.23;;;3.37;;
15082;SDS011;7640;53.116;6.878;2022-11-04T11:26:53;4.73;;;2.87;;
15082;SDS011;7640;53.116;6.878;2022-11-04T11:29:24;3.90;;;2.50;;
15082;SDS011;7640;53.116;6.878;2022-11-04T11:31:56;3.93;;;2.20;;
15082;SDS011;7640;53.116;6.878;2022-11-04T11:34:27;5.73;;;2.20;;
15082;SDS011;7640;53.116;6.878;2022-11-04T11:36:59;4.53;;;2.17;;
15082;SDS011;7640;53.116;6.878;2022-11-04T11:39:30;4.10;;;1.87;;
15082;SDS011;7640;53.116;6.878;2022-11-04T11:42:01;2.90;;;1.43;;
15082;SDS011;7640;53.116;6.878;2022-11-04T11:44:33;4.50;;;1.83;;
15082;SDS011;7640;53.116;6.878;2022-11-04T11:47:20;3.77;;;1.80;;
15082;SDS011;7640;53.116;6.878;2022-11-04T11:50:05;2.53;;;1.57;;
15082;SDS011;7640;53.116;6.878;2022-11-04T11:52:42;4.63;;;1.87;;
15082;SDS011;7640;53.116;6.878;2022-11-04T11:55:11;2.73;;;1.90;;
15082;SDS011;7640;53.116;6.878;2022-11-04T11:57:48;3.57;;;1.70;;
15082;SDS011;7640;53.116;6.878;2022-11-04T12:00:48;4.53;;;1.87;;
15082;SDS011;7640;53.116;6.878;2022-11-04T12:03:31;3.90;;;1.43;;
15082;SDS011;7640;53.116;6.878;2022-11-04T12:06:24;4.07;;;1.83;;
15082;SDS011;7640;53.116;6.878;2022-11-04T12:09:31;2.93;;;1.30;;
15082;SDS011;7640;53.116;6.878;2022-11-04T12:12:18;4.70;;;1.50;;
15082;SDS011;7640;53.116;6.878;2022-11-04T12:15:10;3.03;;;1.77;;
15082;SDS011;7640;53.116;6.878;2022-11-04T12:17:55;4.63;;;1.30;;
15082;SDS011;7640;53.116;6.878;2022-11-04T12:20:47;4.23;;;1.40;;
15082;SDS011;7640;53.116;6.878;2022-11-04T12:23:25;4.43;;;1.30;;
15082;SDS011;7640;53.116;6.878;2022-11-04T12:26:01;3.30;;;1.40;;
15082;SDS011;7640;53.116;6.878;2022-11-04T12:28:43;3.27;;;1.10;;
15082;SDS011;7640;53.116;6.878;2022-11-04T12:31:28;2.87;;;1.23;;
15082;SDS011;7640;53.116;6.878;2022-11-04T12:34:08;2.97;;;0.80;;
15082;SDS011;7640;53.116;6.878;2022-11-04T12:36:52;0.87;;;0.50;;
15082;SDS011;7640;53.116;6.878;2022-11-04T12:39:36;2.33;;;0.70;;
15082;SDS011;7640;53.116;6.878;2022-11-04T12:42:20;2.10;;;0.80;;
15082;SDS011;7640;53.116;6.878;2022-11-04T12:45:01;1.77;;;0.87;;
15082;SDS011;7640;53.116;6.878;2022-11-04T12:47:48;3.57;;;0.90;;
15082;SDS011;7640;53.116;6.878;2022-11-04T12:50:19;2.23;;;0.70;;
15082;SDS011;7640;53.116;6.878;2022-11-04T12:53:16;3.57;;;1.20;;
15082;SDS011;7640;53.116;6.878;2022-11-04T12:56:05;3.93;;;1.10;;
15082;SDS011;7640;53.116;6.878;2022-11-04T12:58:39;5.53;;;1.70;;
15082;SDS011;7640;53.116;6.878;2022-11-04T13:01:28;2.60;;;0.93;;
15082;SDS011;7640;53.116;6.878;2022-11-04T13:04:09;2.30;;;1.13;;
15082;SDS011;7640;53.116;6.878;2022-11-04T13:06:41;2.17;;;1.00;;
15082;SDS011;7640;53.116;6.878;2022-11-04T13:09:14;1.80;;;0.80;;
15082;SDS011;7640;53.116;6.878;2022-11-04T13:11:52;2.63;;;1.10;;
15082;SDS011;7640;53.116;6.878;2022-11-04T13:14:25;1.93;;;0.87;;
15082;SDS011;7640;53.116;6.878;2022-11-04T13:16:56;5.97;;;1.17;;
15082;SDS011;7640;53.116;6.878;2022-11-04T13:19:31;3.80;;;0.80;;
15082;SDS011;7640;53.116;6.878;2022-11-04T13:22:08;3.43;;;0.80;;
15082;SDS011;7640;53.116;6.878;2022-11-04T13:24:45;1.57;;;0.90;;
15082;SDS011;7640;53.116;6.878;2022-11-04T13:27:20;3.20;;;1.27;;
15082;SDS011;7640;53.116;6.878;2022-11-04T13:29:54;3.23;;;1.77;;
15082;SDS011;7640;53.116;6.878;2022-11-04T13:32:32;2.77;;;1.20;;
15082;SDS011;7640;53.116;6.878;2022-11-04T13:35:11;4.50;;;1.23;;
15082;SDS011;7640;53.116;6.878;2022-11-04T13:37:49;3.80;;;1.20;;
15082;SDS011;7640;53.116;6.878;2022-11-04T13:40:25;2.90;;;0.93;;
15082;SDS011;7640;53.116;6.878;2022-11-04T13:43:06;3.33;;;1.50;;
15082;SDS011;7640;53.116;6.878;2022-11-04T13:46:14;2.67;;;1.00;;
15082;SDS011;7640;53.116;6.878;2022-11-04T13:48:52;2.63;;;1.03;;
15082;SDS011;7640;53.116;6.878;2022-11-04T13:51:38;1.57;;;0.97;;
15082;SDS011;7640;53.116;6.878;2022-11-04T13:54:22;4.93;;;1.00;;
15082;SDS011;7640;53.116;6.878;2022-11-04T13:57:05;2.53;;;0.80;;
15082;SDS011;7640;53.116;6.878;2022-11-04T13:59:37;4.20;;;1.50;;
15082;SDS011;7640;53.116;6.878;2022-11-04T14:04:58;9.87;;;1.50;;
15082;SDS011;7640;53.116;6.878;2022-11-04T14:08:24;3.93;;;1.20;;
15082;SDS011;7640;53.116;6.878;2022-11-04T14:11:09;4.77;;;0.90;;
15082;SDS011;7640;53.116;6.878;2022-11-04T14:16:37;2.87;;;1.00;;
15082;SDS011;7640;53.116;6.878;2022-11-04T14:22:35;2.50;;;1.00;;
15082;SDS011;7640;53.116;6.878;2022-11-04T14:25:21;3.90;;;1.43;;
15082;SDS011;7640;53.116;6.878;2022-11-04T14:27:55;4.20;;;1.13;;
15082;SDS011;7640;53.116;6.878;2022-11-04T14:30:33;3.67;;;1.00;;
15082;SDS011;7640;53.116;6.878;2022-11-04T14:33:20;6.07;;;1.40;;
15082;SDS011;7640;53.116;6.878;2022-11-04T14:36:13;2.63;;;0.97;;
15082;SDS011;7640;53.116;6.878;2022-11-04T14:38:51;2.67;;;1.20;;
15082;SDS011;7640;53.116;6.878;2022-11-04T14:41:30;4.13;;;1.10;;
15082;SDS011;7640;53.116;6.878;2022-11-04T14:44:25;4.17;;;1.50;;
15082;SDS011;7640;53.116;6.878;2022-11-04T14:47:01;4.73;;;1.47;;
15082;SDS011;7640;53.116;6.878;2022-11-04T14:49:43;3.77;;;1.30;;
15082;SDS011;7640;53.116;6.878;2022-11-04T14:52:15;4.33;;;1.40;;
15082;SDS011;7640;53.116;6.878;2022-11-04T14:54:49;4.27;;;1.50;;
15082;SDS011;7640;53.116;6.878;2022-11-04T14:57:27;4.23;;;2.30;;
15082;SDS011;7640;53.116;6.878;2022-11-04T14:59:56;4.27;;;2.13;;
15082;SDS011;7640;53.116;6.878;2022-11-04T15:02:27;4.53;;;1.73;;
15082;SDS011;7640;53.116;6.878;2022-11-04T15:05:00;4.30;;;1.60;;
15082;SDS011;7640;53.116;6.878;2022-11-04T15:07:36;4.60;;;1.80;;
15082;SDS011;7640;53.116;6.878;2022-11-04T15:10:25;5.20;;;2.40;;
15082;SDS011;7640;53.116;6.878;2022-11-04T15:13:02;6.80;;;2.10;;
15082;SDS011;7640;53.116;6.878;2022-11-04T15:22:10;8.37;;;2.30;;
15082;SDS011;7640;53.116;6.878;2022-11-04T15:24:47;4.30;;;1.97;;
15082;SDS011;7640;53.116;6.878;2022-11-04T15:27:27;6.17;;;1.60;;
15082;SDS011;7640;53.116;6.878;2022-11-04T15:30:22;10.13;;;2.30;;
15082;SDS011;7640;53.116;6.878;2022-11-04T15:33:03;8.70;;;1.70;;
15082;SDS011;7640;53.116;6.878;2022-11-04T15:39:19;8.20;;;2.60;;
15082;SDS011;7640;53.116;6.878;2022-11-04T15:41:53;7.77;;;2.43;;
15082;SDS011;7640;53.116;6.878;2022-11-04T15:44:48;8.90;;;2.53;;
15082;SDS011;7640;53.116;6.878;2022-11-04T15:47:47;9.90;;;2.57;;
15082;SDS011;7640;53.116;6.878;2022-11-04T15:53:59;11.10;;;4.13;;
15082;SDS011;7640;53.116;6.878;2022-11-04T15:56:38;6.33;;;2.27;;
15082;SDS011;7640;53.116;6.878;2022-11-04T15:59:30;6.87;;;2.70;;
15082;SDS011;7640;53.116;6.878;2022-11-04T16:02:15;7.90;;;3.50;;
15082;SDS011;7640;53.116;6.878;2022-11-04T16:05:20;10.47;;;3.00;;
15082;SDS011;7640;53.116;6.878;2022-11-04T16:11:09;11.17;;;2.90;;
15082;SDS011;7640;53.116;6.878;2022-11-04T16:13:48;8.97;;;2.67;;
15082;SDS011;7640;53.116;6.878;2022-11-04T16:16:22;9.17;;;4.10;;
15082;SDS011;7640;53.116;6.878;2022-11-04T16:19:11;11.40;;;4.90;;
15082;SDS011;7640;53.116;6.878;2022-11-04T16:22:03;9.93;;;4.27;;